Date,TemperatureHighF,TemperatureAvgF,TemperatureLowF,DewpointHighF,DewpointAvgF,DewpointLowF,HumidityHigh,HumidityAvg,HumidityLow,PressureMaxIn,PressureMinIn,WindSpeedMaxMPH,WindSpeedAvgMPH,GustSpeedMaxMPH,PrecipitationSumIn
2013-1-1,38.4,27.9,13.8,24.3,16.9,7.2,86,64,37,30.28,30.11,25,5,25,0.00
2013-1-2,30.9,25.2,20.2,24.3,17.9,12.3,86,74,54,30.43,30.14,31,10,31,0.00
2013-1-3,39.7,22.2,6.6,19.9,12.3,3.6,91,68,42,30.43,30.29,8,1,8,0.00
2013-1-4,52.4,31.7,22.2,21.7,12.0,4.7,56,44,21,30.28,30.11,11,1,11,0.00
2013-1-5,40.4,35.4,25.1,22.3,17.7,13.2,65,49,38,30.27,30.13,31,6,31,0.00
2013-1-6,57.4,37.0,22.1,23.7,13.2,7.2,63,41,15,30.25,29.87,26,3,26,0.00
2013-1-7,46.7,34.5,23.9,24.0,20.7,18.0,81,59,36,29.99,29.72,12,1,12,0.00
2013-1-8,46.1,38.2,24.7,30.0,23.6,16.6,76,56,36,30.16,29.71,29,6,29,0.00
2013-1-9,58.4,41.8,24.7,27.9,21.0,16.0,71,46,25,30.16,29.80,22,3,22,0.00
2013-1-10,60.4,49.5,30.5,26.7,16.1,10.2,81,30,14,29.79,29.37,27,5,30,0.00
2013-1-11,30.4,16.8,6.2,26.3,9.9,-5.0,92,74,56,29.98,29.43,32,9,32,0.00
2013-1-12,12.8,9.1,5.9,4.1,-0.2,-4.6,72,65,59,30.38,29.98,35,7,35,0.00
2013-1-13,18.1,11.7,7.0,4.7,1.3,-3.2,73,63,50,30.38,30.33,20,2,20,0.00
2013-1-14,24.7,16.5,6.2,3.7,-0.2,-4.9,72,48,37,30.38,30.23,21,5,21,0.00
2013-1-15,43.1,31.5,14.1,30.3,18.2,-6.5,76,58,35,30.23,29.97,37,6,37,0.00
2013-1-16,49.6,44.2,39.5,29.1,20.6,17.2,59,39,30,30.26,29.97,30,7,32,0.00
2013-1-17,53.1,41.8,29.2,24.4,19.0,13.9,66,41,25,30.36,30.02,17,4,17,0.00
2013-1-18,57.3,48.4,36.2,17.5,13.3,9.7,43,25,16,30.02,29.84,24,4,24,0.00
2013-1-19,46.7,36.9,22.4,24.4,19.6,16.3,88,53,31,30.24,29.88,24,6,29,0.00
2013-1-20,25.9,18.0,11.3,20.3,12.7,6.3,92,80,60,30.52,30.10,20,5,20,0.00
2013-1-21,17.6,12.7,8.3,13.2,8.9,5.5,90,85,74,30.51,30.30,11,1,11,0.00
2013-1-22,35.7,20.8,6.9,27.6,14.9,3.8,91,79,61,30.33,30.24,8,1,8,0.01
2013-1-23,24.0,18.4,12.6,16.2,13.1,9.2,87,79,70,30.44,30.26,16,2,16,0.00
2013-1-24,55.4,28.1,9.1,25.5,16.4,6.3,89,66,26,30.26,30.08,27,2,28,0.00
2013-1-25,52.0,38.1,25.5,27.2,22.0,17.6,78,54,33,30.23,30.00,17,2,17,0.00
2013-1-26,53.6,42.2,31.8,27.6,24.5,20.3,68,51,32,30.00,29.76,18,2,18,0.00
2013-1-27,50.4,36.9,24.7,30.7,26.2,21.8,94,67,43,29.81,29.65,16,2,16,0.00
2013-1-28,31.7,29.4,24.7,28.9,26.6,21.5,95,89,79,29.88,29.80,12,2,12,0.00
2013-1-29,34.3,23.9,10.2,24.4,14.4,2.3,87,68,45,30.15,29.80,27,6,27,0.02
2013-1-30,17.2,10.3,-1.1,14.4,5.7,-4.5,89,81,69,30.15,29.99,24,2,24,0.00
2013-1-31,14.0,8.2,4.8,9.1,1.6,-2.5,82,74,62,30.44,30.14,36,6,36,0.00
2013-2-1,43.4,35.6,13.2,33.8,26.5,8.2,90,70,56,30.30,30.13,25,5,25,0.07
2013-2-2,45.1,38.0,25.5,27.5,22.4,19.8,83,55,37,30.24,30.13,43,9,43,0.00
2013-2-3,55.9,42.9,26.0,25.1,19.2,9.9,82,42,16,30.21,29.83,30,5,30,0.00
2013-2-4,49.2,39.4,28.3,26.4,22.1,18.8,69,51,32,29.93,29.77,24,4,24,0.00
2013-2-5,47.9,40.9,33.0,28.5,26.3,22.8,77,57,39,29.99,29.76,16,3,16,0.00
2013-2-6,51.1,40.8,30.1,28.4,24.2,21.5,72,53,37,30.07,29.74,21,4,22,0.00
2013-2-7,49.7,39.6,30.0,22.1,18.6,15.9,72,44,26,30.15,29.97,18,3,18,0.00
2013-2-8,43.9,36.5,25.4,24.3,21.1,16.2,85,54,35,29.97,29.87,11,1,11,0.00
2013-2-9,40.0,31.0,24.1,28.7,22.3,18.7,89,71,44,29.91,29.77,18,4,18,0.00
2013-2-10,30.2,26.1,19.8,25.2,19.7,10.5,91,77,61,30.13,29.76,36,12,36,0.00
2013-2-11,32.2,22.7,15.8,16.2,10.3,4.5,70,59,41,30.20,30.08,18,2,18,0.00
2013-2-12,44.7,36.1,23.0,22.9,16.1,6.7,53,44,34,30.09,29.93,22,4,22,0.00
2013-2-13,46.9,39.6,33.1,31.3,23.7,16.9,70,53,40,30.00,29.76,34,8,34,0.00
2013-2-14,33.1,25.7,14.8,23.5,16.1,8.0,88,67,46,30.39,29.99,36,9,36,0.00
2013-2-15,31.6,24.5,15.0,21.1,13.3,6.8,82,63,45,30.50,30.18,19,4,19,0.00
2013-2-16,53.4,45.4,29.3,27.1,25.2,21.5,73,46,34,30.18,29.78,33,8,33,0.00
2013-2-17,54.9,40.5,31.6,29.9,23.4,17.1,76,52,23,29.79,29.48,33,7,33,0.00
2013-2-18,32.0,26.0,16.3,23.8,17.3,12.0,84,70,56,30.27,29.79,35,10,35,0.00
2013-2-19,26.5,17.4,9.3,15.8,10.8,6.8,90,76,61,30.32,30.14,27,8,27,0.00
2013-2-20,35.4,24.5,15.8,18.3,14.1,8.9,76,65,44,30.15,29.94,22,9,22,0.00
2013-2-21,26.8,22.7,17.9,22.4,19.1,15.7,92,86,76,30.09,30.00,11,3,11,0.00
2013-2-22,39.1,26.6,17.3,26.5,17.7,13.0,93,72,36,30.09,29.86,18,2,18,0.03
2013-2-23,45.2,34.2,20.4,30.4,15.8,7.2,89,50,26,29.87,29.70,15,2,16,0.01
2013-2-24,33.1,30.2,21.8,30.8,23.8,15.5,94,77,66,30.19,29.88,22,6,22,0.00
2013-2-25,50.2,34.0,16.8,16.0,9.5,2.3,83,41,14,30.18,29.86,16,3,16,0.00
2013-2-26,40.2,32.7,23.0,30.2,22.9,10.2,84,68,41,30.18,29.86,26,7,26,0.00
2013-2-27,38.0,30.4,18.7,23.4,19.5,14.9,86,65,49,30.32,30.18,25,6,25,0.00
2013-2-28,41.7,29.1,15.8,25.9,19.5,12.4,90,69,38,30.34,30.26,20,2,20,0.00
2013-3-1,46.3,37.3,26.1,33.3,18.3,10.8,81,49,26,30.37,30.19,15,2,15,0.00
2013-3-2,60.2,51.2,41.7,32.3,29.7,26.4,65,45,29,30.20,29.83,19,4,21,0.00
2013-3-3,59.9,47.1,32.8,31.0,27.9,22.3,79,49,31,29.83,29.45,42,4,43,0.00
2013-3-4,32.9,25.5,18.4,22.6,11.3,2.8,78,56,37,30.32,29.67,41,12,41,0.00
2013-3-5,29.7,21.4,14.9,15.2,10.0,4.7,72,61,50,30.51,30.32,23,3,23,0.00
2013-3-6,47.1,29.4,14.3,25.1,15.6,8.3,81,59,35,30.32,29.86,19,3,19,0.00
2013-3-7,54.1,43.6,29.7,27.6,23.7,20.8,79,47,30,30.16,29.84,22,4,23,0.00
2013-3-8,42.4,35.1,26.5,29.6,26.5,22.9,92,72,56,30.14,29.91,15,4,15,0.00
2013-3-9,41.7,33.2,24.3,30.1,22.9,12.3,96,68,31,30.20,29.85,36,10,36,0.00
2013-3-10,45.1,31.0,20.4,21.6,10.3,2.6,80,47,18,30.30,30.04,22,6,22,0.00
2013-3-11,46.0,38.4,28.6,29.3,19.2,8.7,67,46,30,30.16,29.94,31,9,33,0.00
2013-3-12,40.7,30.3,24.4,14.2,6.0,2.4,55,36,23,30.35,30.16,31,8,31,0.00
2013-3-13,65.3,48.5,27.8,28.4,20.8,5.5,54,34,23,30.28,30.05,22,3,22,0.00
2013-3-14,71.0,57.0,41.8,33.1,28.7,24.1,63,37,18,30.13,29.88,17,3,18,0.00
2013-3-15,66.8,52.4,31.3,32.4,28.2,24.2,82,42,20,29.98,29.71,29,5,29,0.00
2013-3-16,36.2,30.1,25.6,33.5,26.9,24.1,95,88,76,30.04,29.93,13,4,13,0.01
2013-3-17,58.0,33.0,24.1,38.0,27.3,17.5,96,82,32,29.96,29.41,35,7,35,0.02
2013-3-18,39.2,27.9,13.7,22.5,11.3,-4.5,90,53,17,30.05,29.80,31,6,31,0.00
2013-3-19,36.4,29.9,17.2,20.3,12.6,4.3,66,49,32,30.46,30.02,26,6,27,0.00
2013-3-20,49.4,31.8,12.9,17.8,11.7,4.6,72,46,23,30.45,29.87,23,6,23,0.00
2013-3-21,43.7,28.5,17.3,24.9,19.1,12.2,92,69,46,29.95,29.70,17,4,17,0.00
2013-3-22,36.1,26.8,19.7,30.3,24.4,14.2,96,91,67,30.20,29.91,17,3,17,0.09
2013-3-23,28.7,20.3,10.4,17.3,12.4,7.0,88,72,47,30.39,30.20,23,6,23,0.00
2013-3-24,21.9,15.0,6.7,13.4,8.9,3.7,91,77,58,30.52,30.35,26,6,26,0.00
2013-3-25,29.5,19.0,5.6,19.5,12.0,1.0,88,75,56,30.52,30.34,13,2,13,0.00
2013-3-26,43.2,27.8,13.7,30.2,17.5,9.0,88,67,37,30.33,30.13,9,1,9,0.01
2013-3-27,53.3,37.7,23.3,30.0,20.4,13.9,80,52,27,30.19,30.11,16,2,16,0.00
2013-3-28,61.9,46.2,31.3,31.0,26.3,21.8,73,49,26,30.13,30.05,14,1,14,0.00
2013-3-29,67.5,56.7,43.5,31.4,27.8,22.3,53,34,20,30.08,29.88,24,5,24,0.00
2013-3-30,55.1,46.7,38.4,42.4,33.8,26.9,91,62,36,30.12,29.97,30,6,30,0.09
2013-3-31,50.4,39.9,29.2,32.4,26.3,20.1,91,60,36,30.23,29.95,13,2,14,0.00
2013-4-1,49.6,36.3,24.0,29.7,25.2,20.7,94,67,40,30.25,30.17,15,2,16,0.00
2013-4-2,57.0,42.2,26.2,27.8,23.7,19.3,83,51,29,30.21,30.09,16,3,18,0.00
2013-4-3,69.5,56.1,38.1,36.8,28.1,19.8,66,36,18,30.11,29.87,25,8,25,0.00
2013-4-4,54.4,43.2,33.6,29.6,25.0,19.3,78,51,33,30.11,30.01,20,5,21,0.00
2013-4-5,58.1,45.3,32.1,41.6,28.3,19.0,72,52,36,30.01,29.58,17,4,21,0.01
2013-4-6,64.3,53.9,42.5,40.1,32.6,27.1,79,47,27,29.78,29.69,26,6,26,0.00
2013-4-7,59.1,47.8,39.7,48.8,39.1,28.8,94,73,43,29.72,29.54,14,2,14,0.20
2013-4-8,42.6,31.7,15.6,40.5,28.6,12.9,96,88,71,30.26,29.57,22,6,25,0.01
2013-4-9,16.1,14.0,10.9,13.6,10.5,7.3,91,86,75,30.59,30.26,23,8,23,0.00
2013-4-10,30.7,21.6,14.8,21.9,16.2,10.9,91,80,58,30.50,30.10,17,4,17,0.05
2013-4-11,38.7,25.9,12.3,31.7,20.5,8.9,95,81,56,30.10,29.92,15,2,15,0.00
2013-4-12,41.1,32.4,21.1,36.5,27.7,19.4,96,83,54,30.04,29.97,21,3,21,0.05
2013-4-13,39.9,31.4,22.2,35.2,27.2,16.8,97,85,63,30.01,29.46,14,3,15,0.00
2013-4-14,38.5,31.4,22.4,34.5,25.1,14.6,98,78,63,29.88,29.45,30,10,32,0.00
2013-4-15,33.3,27.0,20.5,21.0,16.4,11.9,79,64,54,30.24,29.87,25,8,25,0.00
2013-4-16,29.5,25.5,21.7,25.2,20.1,13.0,94,80,61,30.39,30.20,8,1,8,0.00
2013-4-17,30.7,26.4,23.6,25.4,23.2,21.0,94,88,76,30.39,30.29,17,3,17,0.01
2013-4-18,35.9,27.9,21.1,21.9,17.1,11.0,92,65,41,30.31,30.10,28,8,28,0.00
2013-4-19,39.3,34.2,25.5,32.7,29.8,18.6,94,84,70,30.11,30.01,22,4,23,0.15
2013-4-20,53.2,39.8,29.2,42.1,34.1,27.3,94,81,58,30.01,29.91,16,3,16,0.05
2013-4-21,48.4,40.5,31.2,39.5,34.9,29.9,95,81,65,30.17,29.92,26,6,26,0.01
2013-4-22,31.2,26.8,19.8,29.9,21.6,13.7,95,81,60,30.51,30.14,22,5,22,0.01
2013-4-23,37.6,27.8,14.6,22.4,16.4,9.0,89,64,42,30.50,30.20,19,3,19,0.07
2013-4-24,43.2,36.6,29.7,29.1,23.4,18.4,77,59,44,30.21,30.11,30,7,30,0.00
2013-4-25,66.5,49.9,30.0,34.7,25.8,18.6,77,43,18,30.13,29.82,16,3,16,0.00
2013-4-26,70.7,55.0,36.7,35.3,28.8,25.1,67,40,20,30.09,29.94,13,2,13,0.00
2013-4-27,76.2,65.0,52.5,36.7,28.2,22.5,48,26,14,30.03,29.70,21,5,22,0.00
2013-4-28,66.2,57.3,43.8,43.8,35.2,26.0,92,47,25,29.88,29.63,26,7,26,0.16
2013-4-29,74.5,57.1,39.8,42.3,37.1,27.3,97,54,18,29.80,29.30,40,5,40,0.01
2013-4-30,50.7,43.8,33.6,36.9,25.2,18.0,77,49,30,30.20,29.55,25,7,25,0.00
2013-5-1,47.6,37.2,29.2,22.1,17.6,9.7,66,47,22,30.68,30.19,20,4,20,0.00
2013-5-2,53.7,40.6,25.8,26.9,18.7,13.2,69,43,20,30.71,30.42,17,2,17,0.00
2013-5-3,59.9,45.9,30.1,26.1,21.4,17.3,62,40,23,30.42,30.13,15,2,15,0.00
2013-5-4,57.2,45.3,29.6,26.9,18.8,11.2,66,37,21,30.30,30.20,15,2,16,0.00
2013-5-5,61.5,47.1,30.9,26.7,21.6,16.8,57,39,23,30.29,30.11,13,2,13,0.00
2013-5-6,68.1,52.8,36.2,34.5,28.4,24.4,63,42,22,30.14,29.93,17,2,23,0.00
2013-5-7,74.4,59.2,42.9,43.5,36.0,27.6,71,44,25,29.96,29.72,22,2,22,0.00
2013-5-8,72.1,62.9,48.1,45.6,39.4,33.8,71,44,26,30.04,29.79,16,2,16,0.00
2013-5-9,61.9,52.3,40.8,44.1,41.0,36.3,86,67,49,30.12,30.03,12,2,12,0.00
2013-5-10,74.2,57.2,42.2,50.5,38.6,22.7,89,55,19,30.30,30.03,33,4,33,0.08
2013-5-11,63.6,49.6,34.4,33.0,28.6,23.5,73,46,29,30.36,30.16,14,2,14,0.00
2013-5-12,75.8,60.8,40.1,42.0,36.4,28.5,72,43,25,30.17,29.84,16,3,16,0.00
2013-5-13,87.9,78.8,70.4,47.1,41.2,38.1,35,27,18,29.84,29.53,24,7,24,0.00
2013-5-14,78.5,72.0,53.8,48.6,40.8,32.6,48,33,21,29.75,29.48,29,7,29,0.00
2013-5-15,76.8,64.1,46.2,43.5,39.2,32.9,67,42,28,29.89,29.72,23,5,23,0.00
2013-5-16,70.3,64.3,58.0,58.3,50.9,41.0,91,64,37,29.73,29.59,18,3,18,0.38
2013-5-17,76.5,64.3,50.2,59.5,52.8,46.1,87,67,51,29.74,29.58,18,4,18,0.00
2013-5-18,66.5,59.2,53.2,57.0,52.5,47.6,93,79,64,29.72,29.59,19,2,19,0.12
2013-5-19,59.2,54.4,49.4,53.4,50.9,45.9,96,88,76,29.67,29.60,28,7,28,0.24
2013-5-20,51.9,48.3,45.0,47.9,45.7,43.4,96,91,82,29.87,29.55,35,14,35,0.44
2013-5-21,47.9,45.4,42.6,44.5,42.2,39.9,98,88,78,29.98,29.84,30,9,30,0.32
2013-5-22,53.0,48.2,43.3,46.6,44.1,41.6,95,86,74,30.14,29.95,16,4,16,0.00
2013-5-23,65.6,57.7,48.5,46.9,43.0,34.5,83,60,44,30.15,29.85,33,12,33,0.00
2013-5-24,75.5,65.0,54.2,57.2,51.5,46.3,84,62,48,29.87,29.66,29,7,29,0.00
2013-5-25,81.7,67.8,51.3,59.5,54.8,47.6,91,65,41,29.84,29.61,29,6,29,0.00
2013-5-26,72.8,61.2,51.4,62.2,57.5,50.3,96,88,65,29.85,29.65,15,4,15,0.16
2013-5-27,69.5,58.8,48.7,63.8,55.2,44.6,98,88,69,29.81,29.52,23,4,23,0.10
2013-5-28,72.2,61.0,47.7,54.4,46.2,37.9,92,61,34,29.68,29.53,28,4,28,1.44
2013-5-29,70.7,58.4,51.3,58.4,53.2,49.4,96,84,56,29.60,29.39,19,3,19,2.47
2013-5-30,65.5,56.4,51.6,54.5,48.2,41.1,96,75,50,29.43,29.24,33,5,33,0.07
2013-5-31,54.7,50.3,46.8,45.3,42.7,40.7,92,76,63,29.91,29.39,35,11,37,0.22
2013-6-1,62.1,52.4,42.7,44.6,40.9,35.8,92,67,40,30.14,29.91,29,8,29,0.08
2013-6-2,72.0,57.3,40.0,53.5,46.0,37.1,91,68,46,30.12,29.71,25,5,25,0.00
2013-6-3,72.0,59.2,48.6,54.6,47.5,40.2,92,68,39,29.83,29.45,30,6,30,0.00
2013-6-4,60.7,53.7,47.1,44.1,39.1,32.5,69,58,44,30.15,29.82,26,8,26,0.00
2013-6-5,58.6,52.1,45.7,45.1,41.4,38.8,84,67,54,30.17,30.08,18,5,18,0.00
2013-6-6,70.5,57.2,41.1,50.7,44.6,37.9,91,65,41,30.08,29.98,13,2,13,0.00
2013-6-7,78.2,65.7,50.4,55.9,50.4,43.4,84,59,40,29.99,29.56,19,3,22,0.05
2013-6-8,72.2,63.7,53.1,52.7,47.4,38.9,91,58,31,29.83,29.53,32,8,32,0.01
2013-6-9,75.8,65.5,50.0,54.5,48.8,42.2,77,56,41,29.85,29.64,17,4,17,0.00
2013-6-10,79.5,70.8,59.6,61.2,55.6,46.2,78,60,38,29.72,29.51,21,4,22,0.00
2013-6-11,71.8,65.2,56.6,62.8,58.0,52.5,93,78,60,29.83,29.67,22,2,24,0.32
2013-6-12,66.4,59.1,52.9,55.5,52.8,50.0,96,80,64,30.09,29.75,14,3,14,0.00
2013-6-13,74.5,65.8,55.7,59.3,53.7,47.4,82,66,51,30.08,29.66,22,7,22,0.00
2013-6-14,76.3,69.5,60.9,58.0,52.1,43.6,81,55,34,29.89,29.56,25,6,25,0.00
2013-6-15,73.5,65.4,55.7,50.1,44.9,31.7,75,50,28,29.93,29.85,13,2,13,0.00
2013-6-16,76.8,67.6,55.4,59.0,53.1,47.5,77,61,44,29.99,29.84,15,2,15,0.00
2013-6-17,73.7,64.8,55.3,57.5,52.4,48.0,85,65,51,30.00,29.94,12,2,12,0.05
2013-6-18,80.5,67.0,51.3,61.2,54.4,47.8,90,66,45,29.96,29.74,19,3,19,0.00
2013-6-19,84.4,75.2,59.3,63.5,57.0,46.1,81,54,37,29.74,29.42,28,8,28,0.00
2013-6-20,82.8,75.4,67.2,62.8,47.7,33.0,73,40,20,29.72,29.44,23,5,23,0.00
2013-6-21,67.7,63.5,60.7,62.9,60.0,56.6,96,89,70,29.85,29.69,12,2,12,0.07
2013-6-22,76.0,63.1,52.8,62.0,56.2,46.0,94,80,47,29.89,29.64,37,3,37,0.32
2013-6-23,74.6,63.3,49.6,56.1,51.0,45.3,92,66,47,29.82,29.71,17,2,17,0.00
2013-6-24,82.2,70.3,56.0,67.0,56.3,43.0,94,64,32,29.71,29.50,18,2,18,0.01
2013-6-25,82.3,76.3,60.8,57.2,49.9,40.3,75,41,26,29.67,29.43,28,7,28,0.00
2013-6-26,84.6,73.7,57.9,62.1,55.7,51.6,81,56,37,29.88,29.67,22,3,22,0.00
2013-6-27,87.2,73.9,59.7,61.3,55.7,51.9,79,55,32,30.01,29.88,15,3,20,0.00
2013-6-28,83.0,72.6,57.5,57.4,51.5,45.1,76,50,31,30.07,29.97,21,5,21,0.00
2013-6-29,78.7,68.8,57.1,57.2,51.1,44.1,84,56,30,30.04,29.97,17,2,17,0.00
2013-6-30,81.7,68.6,54.0,56.2,51.0,47.6,81,56,34,30.07,30.00,13,2,13,0.00
2013-7-1,81.9,70.0,56.9,58.8,53.4,47.2,85,57,39,30.09,30.02,20,4,20,0.00
2013-7-2,84.0,71.4,57.8,57.9,51.0,47.3,73,51,30,30.08,29.91,12,2,12,0.00
2013-7-3,90.7,76.8,62.0,56.2,50.9,46.8,63,42,24,29.91,29.64,16,3,17,0.00
2013-7-4,84.0,73.0,63.2,62.6,56.1,41.5,79,57,32,29.75,29.61,26,3,26,0.15
2013-7-5,84.5,72.9,65.2,65.0,60.4,55.3,86,66,38,29.69,29.56,17,3,17,0.05
2013-7-6,85.3,74.1,59.8,64.3,59.3,54.0,93,63,36,29.77,29.59,18,3,20,0.00
2013-7-7,82.0,72.2,64.4,64.7,61.0,57.8,90,69,48,29.92,29.74,19,3,19,0.02
2013-7-8,86.1,73.6,64.5,67.6,58.8,52.3,85,62,34,29.90,29.70,30,5,30,0.15
2013-7-9,82.0,70.9,56.6,59.8,55.3,51.6,88,60,36,30.05,29.83,18,4,19,0.00
2013-7-10,90.0,74.1,55.6,67.4,58.0,49.3,86,60,31,30.06,29.77,20,3,20,0.00
2013-7-11,100.3,87.4,77.6,67.1,57.7,48.7,52,38,19,29.81,29.43,39,9,39,0.00
2013-7-12,87.8,79.3,65.1,64.0,56.8,51.0,85,48,30,29.76,29.41,27,6,27,0.03
2013-7-13,90.5,76.3,61.3,67.2,61.3,56.1,85,62,40,29.88,29.73,21,3,21,0.52
2013-7-14,69.2,64.1,60.5,64.6,60.2,58.1,95,87,77,30.10,29.88,14,3,14,1.45
2013-7-15,87.7,75.0,62.3,68.7,63.1,52.0,96,69,41,30.06,29.79,25,6,25,0.00
2013-7-16,89.8,80.1,68.8,59.8,54.0,46.4,69,41,29,29.93,29.80,28,4,28,0.00
2013-7-17,89.5,78.4,62.8,63.9,58.5,55.1,79,53,35,29.97,29.80,27,5,27,0.00
2013-7-18,91.0,82.9,71.4,66.9,58.0,52.9,60,44,29,29.84,29.72,20,5,20,0.00
2013-7-19,87.8,74.4,61.9,64.0,58.4,51.5,95,60,32,29.91,29.72,19,2,19,0.08
2013-7-20,84.3,72.9,63.8,66.6,62.0,52.9,94,71,42,29.82,29.67,22,3,24,0.11
2013-7-21,92.9,77.6,60.4,64.7,57.8,48.5,93,55,23,29.78,29.56,11,2,19,0.06
2013-7-22,85.8,74.1,59.7,61.5,55.6,46.4,92,56,29,29.79,29.62,22,4,22,0.03
2013-7-23,84.0,70.9,57.7,63.6,58.5,54.0,90,67,41,29.90,29.72,24,2,24,0.00
2013-7-24,86.2,74.2,62.2,61.5,55.4,48.7,81,54,28,29.97,29.82,12,2,12,0.00
2013-7-25,78.7,68.8,57.8,60.6,55.8,51.6,95,65,43,30.07,29.74,26,4,26,0.29
2013-7-26,72.0,61.4,50.5,53.7,49.7,46.6,95,67,46,30.18,30.07,15,2,15,0.25
2013-7-27,73.2,62.3,48.8,55.0,49.9,44.5,86,65,49,30.13,29.88,22,5,22,0.00
2013-7-28,74.6,64.7,52.7,62.2,56.7,50.3,93,76,58,29.88,29.72,22,4,22,0.00
2013-7-29,79.8,69.0,56.9,61.2,56.4,52.7,93,67,41,29.96,29.74,17,3,20,0.00
2013-7-30,85.3,70.1,56.4,64.2,58.4,51.6,91,68,36,30.07,29.86,20,4,21,0.00
2013-7-31,82.0,71.2,55.3,57.7,52.9,46.8,78,54,37,30.09,29.96,22,3,22,0.00
2013-8-1,78.0,67.3,58.3,66.9,57.6,50.5,90,72,56,29.98,29.75,14,2,14,0.22
2013-8-2,78.5,66.1,56.5,62.7,57.0,52.7,92,75,44,29.97,29.73,18,5,21,0.01
2013-8-3,79.5,68.5,58.8,64.8,60.4,57.2,97,77,53,30.01,29.88,19,6,21,0.14
2013-8-4,85.3,73.1,63.6,65.8,63.1,60.6,94,74,44,29.96,29.77,9,3,15,0.00
2013-8-5,82.8,72.1,61.8,67.2,61.2,46.9,96,71,35,29.87,29.66,15,3,15,0.04
2013-8-6,80.0,70.3,59.9,58.5,53.3,48.0,89,57,34,29.88,29.68,23,5,23,0.03
2013-8-7,81.5,68.9,57.2,58.8,53.6,48.6,83,60,37,29.90,29.79,15,2,15,0.00
2013-8-8,79.8,68.0,55.0,59.1,56.4,52.7,94,69,45,29.97,29.85,12,2,12,0.00
2013-8-9,79.3,66.7,57.4,62.4,57.8,52.1,91,74,48,30.05,29.92,16,2,17,0.43
2013-8-10,79.7,68.9,59.0,63.2,60.5,56.1,92,76,54,30.01,29.86,17,2,17,0.00
2013-8-11,76.3,66.1,59.7,65.5,61.4,56.5,95,85,65,29.99,29.91,14,2,16,0.13
2013-8-12,78.3,65.7,54.9,65.5,60.1,53.4,96,83,60,30.01,29.94,10,1,10,0.00
2013-8-13,79.8,65.4,57.1,64.6,59.7,54.7,95,83,55,30.04,29.92,24,3,24,0.24
2013-8-14,77.5,64.2,52.4,62.2,57.0,50.6,96,79,54,30.01,29.92,11,2,13,0.00
2013-8-15,77.2,66.9,58.5,63.7,59.5,51.6,96,79,56,29.98,29.87,10,2,13,0.00
2013-8-16,85.8,69.6,55.9,63.1,59.0,54.2,96,72,42,29.97,29.87,14,2,14,0.00
2013-8-17,92.7,76.3,60.5,63.1,56.7,46.4,81,54,26,29.87,29.71,15,2,16,0.00
2013-8-18,89.2,76.9,64.6,63.2,58.5,55.0,74,54,34,29.81,29.70,18,3,18,0.00
2013-8-19,92.5,78.3,62.5,58.5,54.2,46.6,76,47,23,29.83,29.66,22,3,22,0.00
2013-8-20,95.5,75.1,64.9,65.4,56.6,44.8,73,55,24,29.77,29.65,18,2,18,0.09
2013-8-21,85.7,71.9,61.0,59.3,53.3,-99.9,74,55,31,29.95,29.77,19,-2,19,0.06
2013-8-22,85.2,71.9,56.3,61.9,58.0,51.4,84,63,38,30.05,29.88,18,6,20,0.00
2013-8-23,94.2,76.8,62.3,66.9,61.5,56.9,89,62,33,29.88,29.60,23,4,24,0.00
2013-8-24,96.0,83.7,67.3,58.4,54.0,47.6,63,38,21,29.72,29.58,24,3,24,0.00
2013-8-25,92.0,75.7,63.8,68.4,59.9,55.3,82,60,31,29.82,29.72,15,1,15,0.63
2013-8-26,94.0,80.0,70.2,63.6,58.3,51.5,77,51,25,29.80,29.70,15,2,16,0.00
2013-8-27,96.2,80.7,65.2,64.4,57.9,53.3,75,49,24,29.79,29.68,12,2,13,0.00
2013-8-28,90.4,77.4,63.5,70.5,64.6,48.8,94,68,30,29.83,29.71,22,5,22,0.00
2013-8-29,91.0,82.5,67.7,59.3,53.1,-99.9,64,38,23,29.87,29.70,25,2,25,0.00
2013-8-30,91.8,76.8,63.2,68.2,59.3,54.4,76,56,33,29.88,29.72,15,2,15,0.11
2013-8-31,83.0,76.1,62.8,58.3,49.5,39.5,59,40,27,29.93,29.68,25,7,25,0.00
2013-9-1,83.8,67.7,51.2,50.3,45.2,39.3,67,46,28,30.00,29.91,12,1,12,0.00
2013-9-2,92.5,74.6,56.7,56.1,50.5,45.2,68,46,21,29.96,29.77,21,3,21,0.00
2013-9-3,84.6,76.1,70.3,60.5,57.2,54.5,66,52,40,29.77,29.75,12,1,12,0.00
2013-9-4,91.3,80.7,66.2,63.6,61.8,58.8,77,54,37,29.93,29.86,13,2,13,0.00
2013-9-5,90.3,76.8,65.9,68.7,63.6,60.7,88,66,40,29.96,29.78,20,3,20,0.00
2013-9-6,90.5,79.8,69.2,65.7,60.7,54.9,79,53,38,29.82,29.73,18,2,19,0.00
2013-9-7,95.9,81.1,65.5,66.1,60.3,54.4,84,53,26,29.83,29.71,23,4,24,0.00
2013-9-8,80.8,68.3,62.1,68.3,63.1,59.3,96,85,61,29.81,29.61,19,2,19,1.66
2013-9-9,76.5,67.9,62.4,61.2,57.4,53.3,93,70,48,29.85,29.61,18,3,18,0.01
2013-9-10,77.3,65.9,57.4,56.0,52.1,47.5,82,62,39,30.04,29.85,15,2,16,0.00
2013-9-11,80.8,67.1,55.0,56.3,49.7,43.8,86,58,30,30.16,30.04,11,1,11,0.00
2013-9-12,78.3,64.8,51.4,54.8,50.1,45.9,88,61,38,30.22,30.10,15,3,16,0.00
2013-9-13,73.8,63.4,53.5,58.9,54.8,47.5,91,74,56,30.10,29.75,27,5,27,0.00
2013-9-14,78.0,66.1,56.3,60.9,58.1,54.3,95,77,51,29.95,29.68,23,4,23,0.00
2013-9-15,67.7,58.5,51.6,56.5,52.6,47.9,97,82,55,30.18,29.95,12,2,13,0.00
2013-9-16,74.0,61.3,47.3,56.1,52.2,45.3,95,74,51,30.15,29.77,22,5,22,0.00
2013-9-17,88.5,72.3,53.6,60.0,52.9,45.6,94,56,28,29.77,29.50,16,3,17,0.00
2013-9-18,87.9,71.3,58.4,54.7,48.6,39.9,71,47,19,29.71,29.41,26,4,31,0.00
2013-9-19,62.2,54.3,41.2,45.2,39.3,35.6,83,58,42,30.10,29.71,24,5,24,0.00
2013-9-20,71.3,55.1,39.8,45.3,39.3,34.6,83,58,32,30.12,29.91,13,2,13,0.00
2013-9-21,83.8,64.9,46.6,48.8,40.2,34.1,64,43,21,29.91,29.54,9,1,9,0.00
2013-9-22,90.2,76.1,59.0,52.5,42.7,30.1,64,32,20,29.54,29.29,24,3,33,0.00
2013-9-23,66.5,57.7,46.8,55.6,49.6,42.3,91,75,55,29.86,29.26,28,4,28,0.20
2013-9-24,76.2,60.3,43.2,47.0,41.1,36.4,84,53,25,29.99,29.65,23,4,24,0.00
2013-9-25,75.9,65.5,54.1,50.0,44.7,36.8,81,48,33,29.65,29.33,22,4,25,0.00
2013-9-26,64.7,54.8,46.9,49.2,44.2,36.6,93,69,50,29.86,29.41,17,4,17,0.00
2013-9-27,46.9,42.8,38.5,38.6,37.6,35.8,91,82,69,29.97,29.83,15,4,16,0.02
2013-9-28,66.8,53.9,36.5,35.9,32.8,29.3,92,48,26,29.98,29.87,21,5,22,0.00
2013-9-29,78.2,64.0,44.7,40.8,35.4,31.1,70,37,19,29.87,29.53,24,4,24,0.00
2013-9-30,83.5,65.1,51.7,47.3,37.3,27.0,67,38,19,29.72,29.37,35,5,36,0.00
2013-10-1,71.8,59.9,50.3,40.1,29.3,21.8,56,32,22,29.92,29.72,21,5,22,0.00
2013-10-2,68.0,57.2,49.5,39.4,34.3,28.2,60,43,34,29.96,29.68,25,6,25,0.00
2013-10-3,50.5,46.0,37.9,42.3,39.5,35.5,92,79,57,30.12,29.88,16,2,16,0.89
2013-10-4,37.8,32.4,30.5,35.7,31.4,29.6,97,96,90,30.19,30.10,31,7,31,0.29
2013-10-7,68.2,67.4,66.3,31.5,30.4,29.7,27,25,24,29.70,29.66,29,20,29,0.00
2013-10-8,66.7,54.8,40.9,39.4,32.8,29.3,70,46,26,29.84,29.57,32,7,32,0.00
2013-10-9,57.9,47.0,38.8,39.1,32.9,28.3,80,60,33,30.07,29.84,7,1,7,0.00
2013-10-10,57.9,47.0,38.0,46.6,40.6,32.6,92,79,63,29.98,29.54,12,1,12,0.00
2013-10-11,49.9,44.9,37.9,45.4,37.9,27.5,96,78,54,29.99,29.35,41,10,42,3.08
2013-10-12,52.9,44.1,34.5,34.3,30.7,27.1,81,60,44,30.26,29.99,14,2,15,0.00
2013-10-13,58.7,45.1,31.9,44.5,37.1,28.8,89,74,55,30.26,30.00,14,2,14,0.00
2013-10-14,44.7,39.2,32.7,42.4,36.6,31.1,95,91,84,30.19,29.88,28,8,28,0.93
2013-10-15,41.4,35.5,32.2,33.7,30.9,27.5,95,83,70,30.36,30.19,20,6,21,0.13
2013-10-16,56.4,41.1,26.2,32.1,26.6,19.3,84,59,28,30.24,29.99,20,2,20,0.00
2013-10-17,43.4,37.1,33.5,34.7,27.5,22.9,86,69,50,30.18,30.03,23,6,24,0.00
2013-10-18,45.0,38.8,33.1,33.4,27.1,23.9,93,63,51,30.21,29.96,19,5,22,0.01
2013-10-19,60.5,53.0,44.9,33.5,30.8,27.9,53,43,33,29.96,29.76,24,4,24,0.00
2013-10-20,52.9,42.9,37.0,37.2,34.6,32.2,90,73,46,30.07,29.75,25,6,25,0.07
2013-10-21,53.1,45.8,34.1,41.7,36.7,28.8,94,71,58,30.07,29.95,22,4,25,0.04
2013-10-22,52.8,47.0,40.7,41.1,38.0,34.1,87,72,52,30.09,30.00,20,4,21,0.02
2013-10-23,55.0,45.9,34.8,39.6,37.3,32.7,93,73,50,30.31,29.99,21,5,22,0.00
2013-10-24,49.9,38.7,31.9,39.1,34.5,30.6,97,86,64,30.36,30.25,9,1,9,0.00
2013-10-25,69.3,53.9,34.3,43.4,37.5,30.8,93,57,29,30.25,30.03,17,3,18,0.00
2013-10-26,59.0,46.2,32.9,37.8,32.6,27.3,81,60,34,30.25,29.96,11,2,11,0.00
2013-10-27,62.2,51.7,35.3,38.7,32.0,25.4,82,49,29,30.14,29.80,13,3,15,0.00
2013-10-28,35.3,26.8,24.7,30.6,24.7,23.2,95,92,82,30.40,30.14,11,4,12,0.00
2013-10-29,31.7,28.1,25.4,30.3,27.0,24.2,97,95,93,30.39,30.07,9,3,9,0.00
2013-10-30,36.2,31.4,27.6,35.4,30.4,26.6,97,96,94,30.08,29.84,5,1,5,0.05
2013-10-31,52.5,44.3,31.4,36.0,30.0,25.8,96,59,44,29.84,29.69,27,6,29,0.04
2013-11-1,48.9,43.7,40.1,36.5,27.7,21.5,84,55,38,30.15,29.78,39,10,39,0.03
2013-11-2,61.1,47.1,40.7,31.9,26.5,21.5,59,45,23,30.16,29.51,20,5,22,0.00
2013-11-3,60.4,51.7,43.0,33.9,27.8,22.5,61,42,24,29.63,29.47,19,6,21,0.00
2013-11-4,44.5,35.9,30.1,28.5,25.7,17.7,88,68,35,30.19,29.99,14,2,15,0.00
2013-11-5,32.0,25.8,0.0,27.7,24.5,15.9,95,86,66,30.26,30.17,12,1,12,0.00
2013-11-6,46.4,37.0,20.5,32.7,23.5,15.4,86,59,45,30.39,30.18,21,4,22,0.16
2013-11-7,52.0,38.6,27.1,36.5,27.8,21.1,86,66,44,30.41,29.81,15,2,17,0.00
2013-11-8,56.7,49.0,40.7,35.7,27.1,21.3,67,43,31,29.96,29.61,35,6,35,0.00
2013-11-9,46.1,39.2,28.9,29.5,25.8,23.7,81,60,44,30.34,29.96,14,3,17,0.00
2013-11-10,55.8,40.8,26.5,34.5,29.5,24.1,92,66,41,30.32,30.14,10,1,10,0.00
2013-11-11,26.4,18.0,12.7,24.2,14.5,10.2,93,86,79,30.84,30.32,9,1,10,0.00
2013-11-12,54.2,34.4,16.2,36.0,25.3,14.1,94,71,37,30.83,30.27,8,1,8,0.08
2013-11-13,62.4,50.8,42.1,37.2,30.1,21.9,69,46,29,30.27,29.98,15,1,15,0.00
2013-11-14,53.2,44.6,34.9,38.6,28.0,22.9,78,53,32,30.02,29.76,16,3,19,0.00
2013-11-15,53.7,38.6,31.0,35.0,29.0,24.3,84,70,42,29.75,29.40,11,1,11,0.00
2013-11-16,44.7,37.1,28.6,32.7,28.1,22.3,89,70,55,29.43,29.30,13,1,14,0.00
2013-11-17,43.3,37.1,31.1,29.6,21.4,14.6,87,55,32,30.11,29.42,27,6,29,0.00
2013-11-18,54.5,39.5,26.9,27.2,20.6,14.7,64,48,28,30.12,29.86,17,2,17,0.00
2013-11-19,66.6,51.9,37.2,29.7,25.1,20.5,58,37,20,29.86,29.52,28,5,33,0.00
2013-11-20,41.7,27.5,13.3,28.9,20.9,4.5,94,77,53,30.43,29.65,20,5,25,0.00
2013-11-21,20.0,12.8,7.0,8.9,4.5,-3.3,84,69,55,30.83,30.43,16,2,16,0.00
2013-11-22,40.7,27.4,8.9,11.3,-1.9,-23.0,81,35,8,30.81,30.68,21,4,22,0.00
2013-11-23,43.6,24.7,9.2,19.6,12.7,5.7,87,64,26,30.81,30.41,23,2,23,0.00
2013-11-24,55.4,43.6,35.2,28.1,18.4,5.9,47,37,22,30.41,29.96,25,3,25,0.00
2013-11-25,40.9,37.6,34.1,24.8,18.3,9.4,61,46,31,30.37,30.11,24,6,24,0.00
2013-11-26,35.3,26.1,19.7,20.3,16.6,8.9,86,69,35,30.54,30.29,17,2,20,0.00
2013-11-27,60.0,39.2,20.0,25.8,20.5,13.0,88,53,16,30.29,30.05,31,3,31,0.00
2013-11-28,30.4,22.8,17.6,24.1,19.4,14.5,94,87,73,30.35,30.22,9,1,9,0.00
2013-11-29,59.5,42.1,23.1,32.7,24.4,19.8,92,53,25,30.22,30.09,14,1,19,0.00
2013-11-30,49.4,39.2,32.2,28.4,24.9,19.3,72,57,37,30.17,30.08,9,0,10,0.00
2013-12-1,54.4,43.8,35.0,30.9,28.2,26.3,72,55,36,30.12,29.67,13,1,14,0.00
2013-12-2,51.6,43.6,28.9,37.0,32.2,26.9,94,66,45,29.67,29.49,17,2,17,0.07
2013-12-3,28.9,16.5,9.3,27.5,13.3,2.3,95,87,73,30.08,29.59,16,4,18,0.00
2013-12-4,9.3,5.3,-0.2,2.4,-3.8,-10.8,75,65,59,30.42,30.06,30,10,30,0.00
2013-12-5,7.3,-2.5,-11.9,-5.3,-10.4,-16.2,83,69,50,30.69,30.41,19,2,21,0.00
2013-12-6,0.6,-9.6,-16.1,-7.9,-14.9,-20.7,82,77,63,30.92,30.69,5,0,6,0.00
2013-12-7,-6.7,-12.4,-18.0,-10.9,-17.0,-22.8,82,79,72,30.90,30.49,12,2,12,0.00
2013-12-8,12.2,-0.4,-11.3,-0.5,-8.1,-15.7,82,70,55,30.48,30.31,26,3,27,0.00
2013-12-9,26.8,12.4,-7.0,16.7,2.2,-11.9,84,65,33,30.42,30.06,37,5,37,0.00
2013-12-10,32.3,16.3,0.6,22.4,10.5,-3.0,91,79,54,30.56,30.10,23,4,26,0.00
2013-12-11,35.7,16.7,-1.5,15.6,6.5,-5.2,88,66,35,30.57,30.43,11,1,11,0.00
2013-12-12,45.2,30.3,19.7,23.0,16.4,8.9,68,57,34,30.43,29.98,5,0,5,0.01
2013-12-13,34.1,25.9,17.3,25.8,19.5,14.9,94,77,58,30.24,29.95,8,1,8,0.00
2013-12-14,45.2,40.1,25.6,27.3,24.2,21.1,87,54,43,30.28,30.05,21,3,21,0.01
2013-12-15,54.1,48.9,43.0,27.5,24.5,21.3,53,39,29,30.05,29.87,20,4,20,0.00
2013-12-16,50.7,38.8,26.3,30.7,26.0,20.5,93,63,32,30.21,29.87,20,3,20,0.00
2013-12-17,54.9,38.5,22.9,30.7,23.8,19.2,88,60,25,30.34,29.83,18,2,18,0.00
2013-12-18,58.6,45.6,27.7,28.6,23.2,19.5,89,46,23,29.83,29.71,16,3,16,0.00
2013-12-19,28.4,12.5,-4.6,25.8,9.9,-8.3,95,89,84,30.25,29.81,15,4,15,0.00
2013-12-20,27.7,10.3,-5.8,25.4,7.2,-9.4,93,87,83,30.25,29.92,5,0,5,0.00
2013-12-21,17.2,12.0,8.8,13.4,9.2,6.0,92,88,82,30.20,29.87,7,1,7,0.00
2013-12-22,14.8,8.6,1.5,12.1,5.1,-2.2,91,85,77,30.61,30.19,8,0,9,0.00
2013-12-23,40.4,7.3,-7.3,30.6,2.8,-11.3,96,82,65,30.65,30.18,8,0,8,0.00
2013-12-24,44.9,35.7,31.6,34.1,27.0,19.3,90,71,55,30.29,30.05,29,5,32,0.14
2013-12-25,39.9,34.5,29.6,23.9,17.4,11.9,65,50,34,30.39,30.09,27,4,27,0.00
2013-12-26,49.6,42.8,31.3,29.4,23.6,11.2,69,47,28,30.23,30.07,35,4,35,0.00
2013-12-27,56.2,46.7,37.2,35.2,28.8,23.4,66,50,39,30.13,29.80,15,2,15,0.00
2013-12-28,54.4,28.4,5.9,28.3,13.5,0.1,80,56,25,30.47,29.74,22,8,33,0.00
2013-12-29,32.0,16.6,4.4,24.5,10.8,0.7,87,78,61,30.49,30.08,13,1,16,0.00
2013-12-30,37.5,32.3,22.6,28.7,24.7,19.6,91,74,57,30.24,30.01,30,6,30,0.00
2013-12-31,43.6,23.0,12.4,24.5,16.7,9.4,92,80,38,30.19,29.89,17,2,18,0.00
2014-1-1,32.2,22.1,9.0,24.7,17.3,6.4,95,82,64,30.47,30.19,23,2,26,0.00
2014-1-2,42.7,28.4,17.3,26.5,21.3,14.9,92,76,44,30.38,29.93,9,1,10,0.00